Time;durP1;ratioP1;P1;durP2;ratioP2;P2;SDS_P1;SDS_P2;PMS_P1;PMS_P2;Temp;Humidity;BMP_temperature;BMP_pressure;BME280_temperature;BME280_humidity;BME280_pressure;Samples;Min_cycle;Max_cycle;Signal;HPM_P1;HPM_P2
2022/07/20 00:00:39;;;;;;;5.00;4.18;;;;;;;;;;4974227;28;20238;-50
2022/07/20 00:03:05;;;;;;;4.57;4.18;;;;;;;;;;4974557;28;20336;-50
2022/07/20 00:05:31;;;;;;;4.88;4.47;;;;;;;;;;4971781;28;20237;-51
2022/07/20 00:07:59;;;;;;;3.95;3.63;;;;;;;;;;4986927;28;20241;-50
2022/07/20 00:13:10;;;;;;;5.28;4.78;;;;;;;;;;4973536;28;20611;-50
2022/07/20 00:15:36;;;;;;;5.40;4.72;;;;;;;;;;4959555;28;20242;-51
2022/07/20 00:18:02;;;;;;;5.75;4.63;;;;;;;;;;4964493;28;20242;-52
2022/07/20 00:20:29;;;;;;;5.03;4.43;;;;;;;;;;4957544;28;20226;-51
2022/07/20 00:22:56;;;;;;;8.85;5.40;;;;;;;;;;4961677;28;20780;-52
2022/07/20 00:25:24;;;;;;;4.75;4.35;;;;;;;;;;4963430;28;20712;-51
2022/07/20 00:27:51;;;;;;;6.40;4.10;;;;;;;;;;4958679;28;20600;-52
2022/07/20 00:30:17;;;;;;;4.88;4.43;;;;;;;;;;4965170;28;20234;-52
2022/07/20 00:32:44;;;;;;;4.97;4.47;;;;;;;;;;4964862;28;20239;-52
2022/07/20 00:35:12;;;;;;;5.90;4.07;;;;;;;;;;4964898;28;20729;-51
2022/07/20 00:37:39;;;;;;;4.65;3.95;;;;;;;;;;4979119;28;20240;-51
2022/07/20 00:40:06;;;;;;;11.40;4.32;;;;;;;;;;4983649;28;20241;-52
2022/07/20 00:42:34;;;;;;;4.53;4.13;;;;;;;;;;4968078;28;20242;-50
2022/07/20 00:45:00;;;;;;;8.70;5.13;;;;;;;;;;4972544;28;20251;-51
2022/07/20 00:47:26;;;;;;;5.10;4.60;;;;;;;;;;4973074;28;20242;-52
2022/07/20 00:49:53;;;;;;;6.40;4.57;;;;;;;;;;4961882;28;20333;-51
2022/07/20 00:52:19;;;;;;;5.63;4.60;;;;;;;;;;4962001;28;20256;-51
2022/07/20 00:54:48;;;;;;;7.35;5.55;;;;;;;;;;4982610;28;20234;-51
2022/07/20 00:57:14;;;;;;;7.03;4.80;;;;;;;;;;4974298;28;20231;-51
2022/07/20 00:59:42;;;;;;;5.88;4.38;;;;;;;;;;4964488;28;20242;-50
2022/07/20 01:02:08;;;;;;;5.55;4.90;;;;;;;;;;4963279;28;20670;-52
2022/07/20 01:04:35;;;;;;;7.68;5.00;;;;;;;;;;4962908;28;20286;-50
2022/07/20 01:07:01;;;;;;;5.97;4.60;;;;;;;;;;4962310;28;20798;-49
2022/07/20 01:09:28;;;;;;;7.40;5.00;;;;;;;;;;4977445;28;20740;-50
2022/07/20 01:11:54;;;;;;;5.22;4.70;;;;;;;;;;4974950;28;20621;-51
2022/07/20 01:14:20;;;;;;;10.80;5.20;;;;;;;;;;4959621;28;20262;-50
2022/07/20 01:16:48;;;;;;;7.43;4.50;;;;;;;;;;4972936;28;20731;-52
2022/07/20 01:19:14;;;;;;;5.40;4.90;;;;;;;;;;4978946;28;20233;-51
2022/07/20 01:21:43;;;;;;;6.38;5.40;;;;;;;;;;4967042;28;20253;-51
2022/07/20 01:24:10;;;;;;;6.38;5.25;;;;;;;;;;4983890;28;20836;-51
2022/07/20 01:26:37;;;;;;;5.90;5.40;;;;;;;;;;4969182;28;20245;-52
2022/07/20 01:29:03;;;;;;;6.65;5.13;;;;;;;;;;4967444;28;22415;-50
2022/07/20 01:31:29;;;;;;;5.35;4.82;;;;;;;;;;4963827;28;20291;-50
2022/07/20 01:33:56;;;;;;;6.03;5.18;;;;;;;;;;4957296;28;20243;-55
2022/07/20 01:36:22;;;;;;;6.13;5.53;;;;;;;;;;4959577;28;20243;-51
2022/07/20 01:38:50;;;;;;;6.22;5.28;;;;;;;;;;4962901;28;20235;-51
2022/07/20 01:41:16;;;;;;;5.72;5.13;;;;;;;;;;4956699;28;20330;-51
2022/07/20 01:43:43;;;;;;;6.00;5.40;;;;;;;;;;4956044;28;20234;-55
2022/07/20 01:46:09;;;;;;;6.40;4.95;;;;;;;;;;4976431;28;20232;-51
2022/07/20 01:48:36;;;;;;;8.00;4.95;;;;;;;;;;4980453;28;20238;-50
2022/07/20 01:51:02;;;;;;;5.75;5.03;;;;;;;;;;4955151;28;20237;-51
2022/07/20 01:53:28;;;;;;;6.72;5.30;;;;;;;;;;4961111;28;20237;-51
2022/07/20 01:55:57;;;;;;;5.10;4.50;;;;;;;;;;4960785;28;20606;-51
2022/07/20 01:58:24;;;;;;;6.25;5.30;;;;;;;;;;4963243;28;20250;-54
2022/07/20 02:00:50;;;;;;;5.53;5.03;;;;;;;;;;4962307;28;20235;-51
2022/07/20 02:03:17;;;;;;;5.55;5.05;;;;;;;;;;4963059;28;20607;-50
2022/07/20 02:05:43;;;;;;;5.53;4.80;;;;;;;;;;4962567;28;20237;-50
2022/07/20 02:08:10;;;;;;;8.20;4.97;;;;;;;;;;4978397;28;20756;-50
2022/07/20 02:10:37;;;;;;;10.93;6.00;;;;;;;;;;4974535;28;20237;-52
2022/07/20 02:13:05;;;;;;;9.80;5.10;;;;;;;;;;4970503;28;20245;-51
2022/07/20 02:18:15;;;;;;;6.10;5.50;;;;;;;;;;4964267;28;20236;-51
2022/07/20 02:20:45;;;;;;;9.57;5.35;;;;;;;;;;4960480;28;20235;-51
2022/07/20 02:23:11;;;;;;;6.45;5.85;;;;;;;;;;4972820;28;20234;-52
2022/07/20 02:25:38;;;;;;;8.02;5.65;;;;;;;;;;4973674;28;20233;-52
2022/07/20 02:28:07;;;;;;;6.07;5.47;;;;;;;;;;4978833;28;20482;-51
2022/07/20 02:30:33;;;;;;;6.05;5.35;;;;;;;;;;4961577;28;20599;-51
2022/07/20 02:33:01;;;;;;;6.63;5.18;;;;;;;;;;4960785;28;20607;-51
2022/07/20 02:35:27;;;;;;;5.60;5.03;;;;;;;;;;4977656;28;20711;-51
2022/07/20 02:37:54;;;;;;;7.18;5.05;;;;;;;;;;4968724;28;20233;-50
2022/07/20 02:40:20;;;;;;;6.22;5.57;;;;;;;;;;4969841;28;20238;-51
2022/07/20 02:42:46;;;;;;;5.43;4.93;;;;;;;;;;4977109;28;20723;-51
2022/07/20 02:45:14;;;;;;;5.65;5.15;;;;;;;;;;4973484;28;20622;-50
2022/07/20 02:47:44;;;;;;;5.82;5.32;;;;;;;;;;4978477;28;20226;-50
2022/07/20 02:50:11;;;;;;;7.28;5.45;;;;;;;;;;4968028;28;20242;-51
2022/07/20 02:52:38;;;;;;;7.05;5.45;;;;;;;;;;4975853;28;20245;-52
2022/07/20 02:55:04;;;;;;;6.40;5.35;;;;;;;;;;4978000;28;20264;-51
2022/07/20 02:57:31;;;;;;;6.90;6.15;;;;;;;;;;4980140;28;20229;-50
2022/07/20 02:59:57;;;;;;;7.35;6.47;;;;;;;;;;4967589;28;20337;-50
2022/07/20 03:02:25;;;;;;;8.68;5.75;;;;;;;;;;4964923;28;20243;-52
2022/07/20 03:04:51;;;;;;;7.78;5.90;;;;;;;;;;4969092;28;20226;-51
2022/07/20 03:07:18;;;;;;;6.95;6.25;;;;;;;;;;4979039;28;20235;-49
2022/07/20 03:09:44;;;;;;;15.23;6.25;;;;;;;;;;4981196;28;20245;-52
2022/07/20 03:12:10;;;;;;;6.10;5.50;;;;;;;;;;4975375;28;20329;-50
2022/07/20 03:14:37;;;;;;;9.73;6.22;;;;;;;;;;4976273;28;20241;-50
2022/07/20 03:17:03;;;;;;;7.38;5.60;;;;;;;;;;4974938;28;20725;-51
2022/07/20 03:19:31;;;;;;;7.70;6.30;;;;;;;;;;4975532;28;20227;-51
2022/07/20 03:21:57;;;;;;;6.70;6.07;;;;;;;;;;4976856;28;20647;-50
2022/07/20 03:24:23;;;;;;;7.28;5.60;;;;;;;;;;4971944;28;20234;-50
2022/07/20 03:26:50;;;;;;;7.85;5.43;;;;;;;;;;4968431;28;20234;-51
2022/07/20 03:29:16;;;;;;;6.65;5.60;;;;;;;;;;4980546;28;20254;-52
2022/07/20 03:31:43;;;;;;;6.32;5.72;;;;;;;;;;4977664;28;20331;-51
2022/07/20 03:34:09;;;;;;;10.77;6.38;;;;;;;;;;4966400;28;20635;-52
2022/07/20 03:36:37;;;;;;;13.60;6.40;;;;;;;;;;4966815;28;20281;-50
2022/07/20 03:39:03;;;;;;;8.15;6.00;;;;;;;;;;4962158;28;20696;-51
2022/07/20 03:41:30;;;;;;;6.65;5.70;;;;;;;;;;4966122;28;20330;-50
2022/07/20 03:43:56;;;;;;;7.40;6.13;;;;;;;;;;4964572;28;20253;-50
2022/07/20 03:46:22;;;;;;;6.97;6.38;;;;;;;;;;4966493;28;20237;-50
2022/07/20 03:48:49;;;;;;;6.22;5.60;;;;;;;;;;4985821;28;20320;-51
2022/07/20 03:51:15;;;;;;;7.13;6.13;;;;;;;;;;4986698;28;20242;-51
2022/07/20 03:53:43;;;;;;;6.80;6.13;;;;;;;;;;4976327;28;22342;-51
2022/07/20 03:56:09;;;;;;;8.10;5.85;;;;;;;;;;4964358;28;20237;-51
2022/07/20 03:58:35;;;;;;;7.30;6.60;;;;;;;;;;4962776;28;20239;-51
2022/07/20 04:01:02;;;;;;;7.13;6.05;;;;;;;;;;4964269;28;20271;-52
2022/07/20 04:03:28;;;;;;;7.68;6.30;;;;;;;;;;4957979;28;20239;-50
2022/07/20 04:05:54;;;;;;;8.48;6.93;;;;;;;;;;4953885;28;20240;-50
2022/07/20 04:08:21;;;;;;;7.50;6.70;;;;;;;;;;4965810;28;20262;-51
2022/07/20 04:10:48;;;;;;;6.15;5.55;;;;;;;;;;4975758;28;20244;-52
2022/07/20 04:13:15;;;;;;;8.88;6.25;;;;;;;;;;4981639;28;20280;-53
2022/07/20 04:15:41;;;;;;;7.55;5.78;;;;;;;;;;4979865;28;20234;-51
2022/07/20 04:18:08;;;;;;;6.78;6.05;;;;;;;;;;4964055;28;20246;-51
2022/07/20 04:20:34;;;;;;;8.57;6.07;;;;;;;;;;4966547;28;20230;-51
2022/07/20 04:23:00;;;;;;;10.95;6.88;;;;;;;;;;4964189;28;20246;-51
2022/07/20 04:25:27;;;;;;;7.85;6.88;;;;;;;;;;4957790;28;20312;-52
2022/07/20 04:27:55;;;;;;;8.10;6.40;;;;;;;;;;4981415;28;20242;-51
2022/07/20 04:30:21;;;;;;;6.75;6.15;;;;;;;;;;4985427;28;20309;-52
2022/07/20 04:32:47;;;;;;;6.88;6.25;;;;;;;;;;4985800;28;20242;-51
2022/07/20 04:35:14;;;;;;;7.47;6.78;;;;;;;;;;4961354;28;20231;-51
2022/07/20 04:37:40;;;;;;;6.82;6.20;;;;;;;;;;4974664;28;20226;-50
2022/07/20 04:40:07;;;;;;;14.15;7.55;;;;;;;;;;4978437;28;20237;-50
2022/07/20 04:42:33;;;;;;;7.10;6.40;;;;;;;;;;4967436;28;20582;-51
2022/07/20 04:45:01;;;;;;;7.82;6.78;;;;;;;;;;4954717;28;20322;-50
2022/07/20 04:47:28;;;;;;;6.80;6.20;;;;;;;;;;4958861;28;20255;-51
2022/07/20 04:49:54;;;;;;;7.50;6.75;;;;;;;;;;4958249;28;20249;-51
2022/07/20 04:52:20;;;;;;;7.95;6.85;;;;;;;;;;4960114;28;20242;-52
2022/07/20 04:54:47;;;;;;;7.07;6.15;;;;;;;;;;4955253;28;20242;-51
2022/07/20 04:57:13;;;;;;;7.38;6.68;;;;;;;;;;4971989;28;20266;-52
2022/07/20 04:59:39;;;;;;;8.68;6.32;;;;;;;;;;4968220;28;20321;-50
2022/07/20 05:02:07;;;;;;;10.35;6.50;;;;;;;;;;4964574;28;20247;-51
2022/07/20 05:04:33;;;;;;;8.27;6.93;;;;;;;;;;4959719;28;20235;-51
2022/07/20 05:07:00;;;;;;;7.78;6.65;;;;;;;;;;4958227;28;20274;-51
2022/07/20 05:09:26;;;;;;;9.07;7.03;;;;;;;;;;4970330;28;20246;-51
2022/07/20 05:11:53;;;;;;;9.60;6.45;;;;;;;;;;4976974;28;20723;-51
2022/07/20 05:14:19;;;;;;;8.63;7.25;;;;;;;;;;4972178;28;21293;-51
2022/07/20 05:16:46;;;;;;;9.50;6.63;;;;;;;;;;4965728;28;20241;-53
2022/07/20 05:19:13;;;;;;;10.05;6.45;;;;;;;;;;4966489;28;20231;-51
2022/07/20 05:21:40;;;;;;;7.93;6.93;;;;;;;;;;4965394;28;20270;-51
2022/07/20 05:24:06;;;;;;;12.13;7.32;;;;;;;;;;4953600;28;20325;-51
2022/07/20 05:26:33;;;;;;;11.52;7.05;;;;;;;;;;4957113;28;20231;-52
2022/07/20 05:28:59;;;;;;;7.38;6.78;;;;;;;;;;4959337;28;20264;-52
2022/07/20 05:31:26;;;;;;;16.00;6.90;;;;;;;;;;4963336;28;20231;-52
2022/07/20 05:33:52;;;;;;;8.02;6.25;;;;;;;;;;4959485;28;20327;-51
2022/07/20 05:36:20;;;;;;;9.98;6.75;;;;;;;;;;4961330;28;20229;-51
2022/07/20 05:38:46;;;;;;;8.98;7.22;;;;;;;;;;4971608;28;20242;-52
2022/07/20 05:41:12;;;;;;;9.23;7.22;;;;;;;;;;4964687;28;20665;-52
2022/07/20 05:43:39;;;;;;;9.45;6.95;;;;;;;;;;4962344;28;20231;-52
2022/07/20 05:46:05;;;;;;;7.50;6.78;;;;;;;;;;4960748;28;20698;-51
2022/07/20 05:48:32;;;;;;;10.80;6.57;;;;;;;;;;4953425;28;20282;-51
2022/07/20 05:50:58;;;;;;;9.15;7.10;;;;;;;;;;4962600;28;20242;-52
2022/07/20 05:53:26;;;;;;;8.48;6.65;;;;;;;;;;4963740;28;20230;-52
2022/07/20 05:55:52;;;;;;;7.97;7.18;;;;;;;;;;4976624;28;20234;-52
2022/07/20 05:58:19;;;;;;;11.30;7.65;;;;;;;;;;4978176;28;20597;-53
2022/07/20 06:00:45;;;;;;;7.35;6.75;;;;;;;;;;4961460;28;20328;-50
2022/07/20 06:03:12;;;;;;;14.05;7.43;;;;;;;;;;4958827;28;20727;-50
2022/07/20 06:05:38;;;;;;;11.43;6.95;;;;;;;;;;4957400;28;20265;-51
2022/07/20 06:08:05;;;;;;;9.48;5.80;;;;;;;;;;4958283;28;20226;-51
2022/07/20 06:10:33;;;;;;;14.00;7.13;;;;;;;;;;4956991;28;20553;-51
2022/07/20 06:13:00;;;;;;;8.98;7.72;;;;;;;;;;4961815;28;20262;-52
2022/07/20 06:15:26;;;;;;;10.20;7.55;;;;;;;;;;4974209;28;20321;-51
2022/07/20 06:17:54;;;;;;;11.80;6.47;;;;;;;;;;4962671;28;20383;-51
2022/07/20 06:20:20;;;;;;;7.63;6.32;;;;;;;;;;4970788;28;21411;-52
2022/07/20 06:22:47;;;;;;;8.15;7.35;;;;;;;;;;4985711;28;20242;-51
2022/07/20 06:25:14;;;;;;;9.10;6.80;;;;;;;;;;4966838;28;20310;-51
2022/07/20 06:27:42;;;;;;;10.68;7.38;;;;;;;;;;4961981;28;20340;-50
2022/07/20 06:30:09;;;;;;;9.77;6.93;;;;;;;;;;4961166;28;20313;-50
2022/07/20 06:32:36;;;;;;;12.02;7.55;;;;;;;;;;4968090;28;20248;-51
2022/07/20 06:35:02;;;;;;;12.00;7.10;;;;;;;;;;4973089;28;20326;-52
2022/07/20 06:37:29;;;;;;;8.38;6.85;;;;;;;;;;4954293;28;20258;-52
2022/07/20 06:39:55;;;;;;;10.38;7.68;;;;;;;;;;4974582;28;20234;-52
2022/07/20 06:42:21;;;;;;;10.73;7.85;;;;;;;;;;4964513;28;20235;-51
2022/07/20 06:44:49;;;;;;;10.52;8.20;;;;;;;;;;4968092;28;20244;-52
2022/07/20 06:47:16;;;;;;;15.82;7.45;;;;;;;;;;4959860;28;20231;-53
2022/07/20 06:49:43;;;;;;;10.00;7.03;;;;;;;;;;4962738;28;20241;-52
2022/07/20 06:52:09;;;;;;;7.35;6.50;;;;;;;;;;4948096;28;20239;-51
2022/07/20 06:54:36;;;;;;;10.40;7.70;;;;;;;;;;4953846;28;20299;-52
2022/07/20 06:57:02;;;;;;;10.45;6.68;;;;;;;;;;4956403;28;20252;-52
2022/07/20 06:59:28;;;;;;;8.27;7.47;;;;;;;;;;4963522;28;20240;-51
2022/07/20 07:01:56;;;;;;;8.25;6.97;;;;;;;;;;4960081;28;20763;-51
2022/07/20 07:04:22;;;;;;;9.32;7.32;;;;;;;;;;4959934;28;20244;-51
2022/07/20 07:06:49;;;;;;;11.07;7.95;;;;;;;;;;4960848;28;21221;-52
2022/07/20 07:09:15;;;;;;;9.68;7.13;;;;;;;;;;4968156;28;20245;-51
2022/07/20 07:11:42;;;;;;;10.02;7.75;;;;;;;;;;4970647;28;20248;-51
2022/07/20 07:14:08;;;;;;;9.93;8.55;;;;;;;;;;4987296;28;20320;-51
2022/07/20 07:16:35;;;;;;;11.95;7.47;;;;;;;;;;4978410;28;20243;-51
2022/07/20 07:19:03;;;;;;;9.73;6.13;;;;;;;;;;4981447;28;20258;-51
2022/07/20 07:21:29;;;;;;;11.30;7.40;;;;;;;;;;4964030;28;20237;-52
2022/07/20 07:23:55;;;;;;;13.15;7.38;;;;;;;;;;4964531;28;20240;-52
2022/07/20 07:26:23;;;;;;;7.47;6.68;;;;;;;;;;4959989;28;20234;-51
2022/07/20 07:28:49;;;;;;;7.43;6.80;;;;;;;;;;4960365;28;20265;-50
2022/07/20 07:31:17;;;;;;;12.75;8.07;;;;;;;;;;4956098;28;20793;-50
2022/07/20 07:33:43;;;;;;;9.57;6.88;;;;;;;;;;4954942;28;20246;-51
2022/07/20 07:36:11;;;;;;;7.32;5.75;;;;;;;;;;4958709;28;20233;-50
2022/07/20 07:38:37;;;;;;;6.88;6.22;;;;;;;;;;4956874;28;20245;-50
2022/07/20 07:41:04;;;;;;;10.45;6.05;;;;;;;;;;4961651;28;20235;-50
2022/07/20 07:43:30;;;;;;;9.40;6.45;;;;;;;;;;4966681;28;20223;-50
2022/07/20 07:45:57;;;;;;;6.85;5.57;;;;;;;;;;4960265;28;20673;-50
2022/07/20 07:48:23;;;;;;;7.75;5.75;;;;;;;;;;4961814;28;20239;-50
2022/07/20 07:50:49;;;;;;;6.53;5.85;;;;;;;;;;4958790;28;20233;-51
2022/07/20 07:53:17;;;;;;;6.97;5.78;;;;;;;;;;4958498;28;20329;-55
2022/07/20 07:55:44;;;;;;;8.38;7.25;;;;;;;;;;4960090;28;20231;-50
2022/07/20 07:58:11;;;;;;;6.88;5.80;;;;;;;;;;4983989;28;20640;-49
2022/07/20 08:00:38;;;;;;;6.50;5.85;;;;;;;;;;4979094;28;20238;-50
2022/07/20 08:03:05;;;;;;;8.15;6.03;;;;;;;;;;4960301;28;20242;-51
2022/07/20 08:05:31;;;;;;;9.18;6.13;;;;;;;;;;4957751;28;20615;-50
2022/07/20 08:07:58;;;;;;;8.63;6.43;;;;;;;;;;4961043;28;20227;-49
2022/07/20 08:10:25;;;;;;;8.77;6.00;;;;;;;;;;4958660;28;20242;-51
2022/07/20 08:12:52;;;;;;;8.32;5.63;;;;;;;;;;4965556;28;20245;-50
2022/07/20 08:15:18;;;;;;;9.93;5.47;;;;;;;;;;4960697;28;20230;-50
2022/07/20 08:17:45;;;;;;;6.38;5.57;;;;;;;;;;4964856;28;20665;-48
2022/07/20 08:20:11;;;;;;;5.32;4.82;;;;;;;;;;4973267;28;20698;-49
2022/07/20 08:22:38;;;;;;;5.75;5.13;;;;;;;;;;4965526;28;20243;-50
2022/07/20 08:25:04;;;;;;;14.18;5.97;;;;;;;;;;4971696;28;20237;-49
2022/07/20 08:27:33;;;;;;;9.75;5.25;;;;;;;;;;4960566;28;20238;-51
2022/07/20 08:30:00;;;;;;;9.50;5.13;;;;;;;;;;4961444;28;20249;-49
2022/07/20 08:32:26;;;;;;;5.70;5.13;;;;;;;;;;4963782;28;20329;-50
2022/07/20 08:34:53;;;;;;;8.93;6.00;;;;;;;;;;4964998;28;20254;-51
2022/07/20 08:37:19;;;;;;;7.25;5.97;;;;;;;;;;4972072;28;20234;-53
2022/07/20 08:39:46;;;;;;;8.77;5.55;;;;;;;;;;4987283;28;20320;-51
2022/07/20 08:42:12;;;;;;;8.93;5.63;;;;;;;;;;4983713;28;20234;-49
2022/07/20 08:44:41;;;;;;;9.57;5.43;;;;;;;;;;4986237;28;20389;-50
2022/07/20 08:47:08;;;;;;;9.43;5.15;;;;;;;;;;4975329;28;20237;-51
2022/07/20 08:49:35;;;;;;;5.45;4.95;;;;;;;;;;4985634;28;20317;-52
2022/07/20 08:52:01;;;;;;;7.68;4.85;;;;;;;;;;4971747;28;20245;-51
2022/07/20 08:54:28;;;;;;;8.10;5.13;;;;;;;;;;4963583;28;20241;-52
2022/07/20 08:56:54;;;;;;;5.82;4.68;;;;;;;;;;4960145;28;20231;-51
2022/07/20 08:59:21;;;;;;;6.57;4.55;;;;;;;;;;4957093;28;20239;-53
2022/07/20 09:02:01;;;;;;;8.15;4.75;;;;;;;;;;4955701;28;20333;-52
2022/07/20 09:04:28;;;;;;;11.30;5.60;;;;;;;;;;4955596;28;20417;-51
2022/07/20 09:06:54;;;;;;;6.75;4.75;;;;;;;;;;4949763;28;20245;-51
2022/07/20 09:09:21;;;;;;;5.38;4.95;;;;;;;;;;4954809;28;20234;-51
2022/07/20 09:11:47;;;;;;;8.73;4.72;;;;;;;;;;4976770;28;20234;-52
2022/07/20 09:14:16;;;;;;;6.18;4.70;;;;;;;;;;4971826;28;20239;-51
2022/07/20 09:16:46;;;;;;;10.82;4.43;;;;;;;;;;4961662;28;20231;-51
2022/07/20 09:19:14;;;;;;;5.82;4.68;;;;;;;;;;4961835;28;20231;-52
2022/07/20 09:21:41;;;;;;;4.03;3.53;;;;;;;;;;4965814;28;20239;-51
2022/07/20 09:24:08;;;;;;;7.72;4.38;;;;;;;;;;4953402;28;20627;-52
2022/07/20 09:26:35;;;;;;;5.88;4.13;;;;;;;;;;4954698;28;20234;-51
2022/07/20 09:29:04;;;;;;;4.88;4.25;;;;;;;;;;4953849;28;20241;-51
2022/07/20 09:31:33;;;;;;;8.52;4.55;;;;;;;;;;4958054;28;20250;-51
2022/07/20 09:34:00;;;;;;;6.03;4.35;;;;;;;;;;4955785;28;20309;-51
2022/07/20 09:36:28;;;;;;;4.55;3.08;;;;;;;;;;4954985;28;20241;-51
2022/07/20 09:38:55;;;;;;;5.50;4.80;;;;;;;;;;4961049;28;20704;-51
2022/07/20 09:41:23;;;;;;;5.95;4.00;;;;;;;;;;4965132;28;20238;-52
2022/07/20 09:43:49;;;;;;;5.43;3.95;;;;;;;;;;4964119;28;20643;-52
2022/07/20 09:46:16;;;;;;;9.98;3.88;;;;;;;;;;4961452;28;20324;-51
2022/07/20 09:48:44;;;;;;;7.20;4.20;;;;;;;;;;4955747;28;20248;-52
2022/07/20 09:51:18;;;;;;;5.57;4.22;;;;;;;;;;4945034;28;20237;-50
2022/07/20 09:53:46;;;;;;;4.63;4.25;;;;;;;;;;4955143;28;20692;-50
2022/07/20 09:56:14;;;;;;;5.32;3.83;;;;;;;;;;4962950;28;20234;-51
2022/07/20 09:58:41;;;;;;;5.20;4.03;;;;;;;;;;4951730;28;20234;-51
2022/07/20 10:01:08;;;;;;;8.10;4.20;;;;;;;;;;4948930;28;20249;-51
2022/07/20 10:03:34;;;;;;;8.20;3.95;;;;;;;;;;4952575;28;20236;-51
2022/07/20 10:06:01;;;;;;;5.65;3.70;;;;;;;;;;4957987;28;20244;-51
2022/07/20 10:08:27;;;;;;;5.70;3.58;;;;;;;;;;4955366;28;21152;-51
2022/07/20 10:10:55;;;;;;;8.15;4.28;;;;;;;;;;4951964;28;20237;-51
2022/07/20 10:13:21;;;;;;;5.35;4.15;;;;;;;;;;4953324;28;20233;-52
2022/07/20 10:15:53;;;;;;;5.45;3.92;;;;;;;;;;4953609;28;21355;-52
2022/07/20 10:18:19;;;;;;;6.40;3.28;;;;;;;;;;4953003;28;20237;-52
2022/07/20 10:20:46;;;;;;;6.50;3.88;;;;;;;;;;4956546;28;20242;-52
2022/07/20 10:23:32;;;;;;;4.78;3.58;;;;;;;;;;4950804;28;20436;-51
2022/07/20 10:26:00;;;;;;;5.03;3.88;;;;;;;;;;4951442;28;20452;-51
2022/07/20 10:28:37;;;;;;;4.20;3.28;;;;;;;;;;4954630;28;20578;-53
2022/07/20 10:31:06;;;;;;;8.25;3.72;;;;;;;;;;4950376;28;20770;-51
2022/07/20 10:33:33;;;;;;;11.90;3.83;;;;;;;;;;4952140;28;20234;-52
2022/07/20 10:38:54;;;;;;;4.80;3.92;;;;;;;;;;4968664;28;20344;-52
2022/07/20 10:41:36;;;;;;;9.88;4.25;;;;;;;;;;4957181;28;20857;-51
2022/07/20 10:44:27;;;;;;;8.10;4.28;;;;;;;;;;4958171;28;20243;-51
2022/07/20 10:46:53;;;;;;;5.68;4.10;;;;;;;;;;4950579;28;20238;-51
2022/07/20 10:49:19;;;;;;;3.90;3.47;;;;;;;;;;4952791;28;20242;-51
2022/07/20 10:52:06;;;;;;;4.18;3.78;;;;;;;;;;4962746;28;20245;-50
2022/07/20 10:54:34;;;;;;;5.90;3.88;;;;;;;;;;4965844;28;20225;-51
2022/07/20 10:57:02;;;;;;;7.10;3.97;;;;;;;;;;4956318;28;20248;-50
2022/07/20 10:59:29;;;;;;;7.40;3.58;;;;;;;;;;4963779;28;20344;-52
2022/07/20 11:01:55;;;;;;;6.20;3.17;;;;;;;;;;4952775;28;20725;-52
2022/07/20 11:04:22;;;;;;;4.65;3.80;;;;;;;;;;4952124;28;20229;-51
2022/07/20 11:06:49;;;;;;;3.63;3.28;;;;;;;;;;4952528;28;20230;-53
2022/07/20 11:09:16;;;;;;;4.88;3.45;;;;;;;;;;4950585;28;20300;-50
2022/07/20 11:11:43;;;;;;;3.20;3.00;;;;;;;;;;4950913;28;20748;-49
2022/07/20 11:14:11;;;;;;;7.53;4.30;;;;;;;;;;4953211;28;20259;-52
2022/07/20 11:16:38;;;;;;;7.03;4.15;;;;;;;;;;4961399;28;20615;-51
2022/07/20 11:19:05;;;;;;;5.95;4.10;;;;;;;;;;4953873;28;20230;-50
2022/07/20 11:21:33;;;;;;;7.22;3.47;;;;;;;;;;4961525;28;20243;-51
2022/07/20 11:23:59;;;;;;;5.22;3.95;;;;;;;;;;4952279;28;20238;-52
2022/07/20 11:26:26;;;;;;;4.78;3.78;;;;;;;;;;4954498;28;20835;-50
2022/07/20 11:28:54;;;;;;;9.02;4.13;;;;;;;;;;4958229;28;20246;-51
2022/07/20 11:31:23;;;;;;;5.10;3.80;;;;;;;;;;4960606;28;20241;-50
2022/07/20 11:33:50;;;;;;;5.13;3.58;;;;;;;;;;4976761;28;20233;-50
2022/07/20 11:36:17;;;;;;;6.55;3.65;;;;;;;;;;4964391;28;20238;-51
2022/07/20 11:38:44;;;;;;;7.10;4.05;;;;;;;;;;4978604;28;20699;-52
2022/07/20 11:41:11;;;;;;;4.70;3.85;;;;;;;;;;4960427;28;20304;-50
2022/07/20 11:43:38;;;;;;;3.38;3.10;;;;;;;;;;4955070;28;20244;-51
2022/07/20 11:46:11;;;;;;;9.55;4.43;;;;;;;;;;4956911;28;20241;-50
2022/07/20 11:48:39;;;;;;;4.57;3.67;;;;;;;;;;4954945;28;20238;-51
2022/07/20 11:51:07;;;;;;;3.47;3.05;;;;;;;;;;4955295;28;20681;-50
2022/07/20 11:53:34;;;;;;;4.05;3.30;;;;;;;;;;4961645;28;20272;-51
2022/07/20 11:56:05;;;;;;;4.35;3.88;;;;;;;;;;4960993;28;20241;-52
2022/07/20 11:58:32;;;;;;;3.83;3.40;;;;;;;;;;4961375;28;20231;-51
2022/07/20 12:00:59;;;;;;;4.72;3.63;;;;;;;;;;4958878;28;20245;-51
2022/07/20 12:03:27;;;;;;;4.30;3.17;;;;;;;;;;4962231;28;20252;-50
2022/07/20 12:05:54;;;;;;;4.20;3.42;;;;;;;;;;4960034;28;20240;-51
2022/07/20 12:08:22;;;;;;;3.97;3.08;;;;;;;;;;4960958;28;20436;-50
2022/07/20 12:10:49;;;;;;;9.07;3.75;;;;;;;;;;4964395;28;20242;-51
2022/07/20 12:13:16;;;;;;;7.78;3.40;;;;;;;;;;4959977;28;20735;-50
2022/07/20 12:15:51;;;;;;;4.50;3.20;;;;;;;;;;4962830;28;20234;-51
2022/07/20 12:18:32;;;;;;;4.75;3.22;;;;;;;;;;4976104;28;20256;-52
2022/07/20 12:21:00;;;;;;;4.75;3.10;;;;;;;;;;4979232;28;20221;-51
2022/07/20 12:23:27;;;;;;;8.05;3.58;;;;;;;;;;4978489;28;20234;-51
2022/07/20 12:25:53;;;;;;;7.28;3.38;;;;;;;;;;4971000;28;20234;-51
2022/07/20 12:28:27;;;;;;;6.57;2.90;;;;;;;;;;4960261;28;20314;-51
2022/07/20 12:30:53;;;;;;;13.45;4.07;;;;;;;;;;4960397;28;20234;-51
2022/07/20 12:33:20;;;;;;;6.13;3.20;;;;;;;;;;4962815;28;20241;-51
2022/07/20 12:35:48;;;;;;;4.70;3.33;;;;;;;;;;4964699;28;20233;-51
2022/07/20 12:38:16;;;;;;;5.60;3.42;;;;;;;;;;4963997;28;20302;-51
2022/07/20 12:40:44;;;;;;;3.80;3.35;;;;;;;;;;4957149;28;21053;-50
2022/07/20 12:43:30;;;;;;;8.05;4.40;;;;;;;;;;4958606;28;20253;-52
2022/07/20 12:45:59;;;;;;;6.10;3.72;;;;;;;;;;4961100;28;20247;-52
2022/07/20 12:48:26;;;;;;;5.85;3.30;;;;;;;;;;4961992;28;20285;-50
2022/07/20 12:50:52;;;;;;;3.90;3.33;;;;;;;;;;4959642;28;20233;-52
2022/07/20 12:53:20;;;;;;;3.90;3.40;;;;;;;;;;4962074;28;20238;-52
2022/07/20 12:55:46;;;;;;;3.83;3.50;;;;;;;;;;4957199;28;20245;-51
2022/07/20 12:58:13;;;;;;;5.88;3.80;;;;;;;;;;4959726;28;20230;-51
2022/07/20 13:00:39;;;;;;;6.65;4.07;;;;;;;;;;4979717;23;20420;-52
2022/07/20 13:03:05;;;;;;;6.95;5.22;;;;;;;;;;4985041;28;20344;-51
2022/07/20 13:05:32;;;;;;;8.00;4.18;;;;;;;;;;4986274;28;20483;-51
2022/07/20 13:07:58;;;;;;;5.00;3.53;;;;;;;;;;4978663;28;20249;-52
2022/07/20 13:10:26;;;;;;;3.50;3.20;;;;;;;;;;4976365;28;20432;-51
2022/07/20 13:12:53;;;;;;;6.82;4.40;;;;;;;;;;4960929;28;20238;-52
2022/07/20 13:15:19;;;;;;;3.45;3.15;;;;;;;;;;4970522;28;20242;-52
2022/07/20 13:17:45;;;;;;;7.95;3.60;;;;;;;;;;4977678;28;20241;-52
2022/07/20 13:20:12;;;;;;;7.15;4.05;;;;;;;;;;4980988;28;20252;-51
2022/07/20 13:22:38;;;;;;;4.82;3.22;;;;;;;;;;4982715;28;20661;-51
2022/07/20 13:25:05;;;;;;;8.20;3.10;;;;;;;;;;4966537;28;20264;-52
2022/07/20 13:27:33;;;;;;;6.15;3.67;;;;;;;;;;4978763;28;20236;-51
2022/07/20 13:29:59;;;;;;;5.78;3.30;;;;;;;;;;4979456;28;20317;-51
2022/07/20 13:32:25;;;;;;;5.00;3.67;;;;;;;;;;4976181;28;20241;-51
2022/07/20 13:34:52;;;;;;;4.88;2.63;;;;;;;;;;4976205;28;20324;-51
2022/07/20 13:37:18;;;;;;;4.88;3.20;;;;;;;;;;4982195;28;20695;-52
2022/07/20 13:39:45;;;;;;;4.80;2.85;;;;;;;;;;4999055;28;20243;-52
2022/07/20 13:42:11;;;;;;;5.20;2.85;;;;;;;;;;4998780;28;20239;-52
2022/07/20 13:44:39;;;;;;;9.13;3.58;;;;;;;;;;5002268;28;20246;-51
2022/07/20 13:47:05;;;;;;;5.03;3.17;;;;;;;;;;4997480;28;20240;-52
2022/07/20 13:49:32;;;;;;;3.92;3.22;;;;;;;;;;5001043;28;20228;-52
2022/07/20 13:51:58;;;;;;;3.38;2.72;;;;;;;;;;5002828;28;20251;-51
2022/07/20 13:54:24;;;;;;;7.10;3.45;;;;;;;;;;5004788;28;20239;-53
2022/07/20 13:56:51;;;;;;;5.50;3.22;;;;;;;;;;5004106;28;20679;-52
2022/07/20 13:59:17;;;;;;;2.67;2.42;;;;;;;;;;4996488;28;20232;-53
2022/07/20 14:01:45;;;;;;;5.30;4.45;;;;;;;;;;4999674;28;20660;-52
2022/07/20 14:04:11;;;;;;;4.97;3.90;;;;;;;;;;5002401;28;20228;-52
2022/07/20 14:06:38;;;;;;;7.13;3.75;;;;;;;;;;4996017;28;20264;-52
2022/07/20 14:09:05;;;;;;;6.68;3.83;;;;;;;;;;4995014;28;20228;-51
2022/07/20 14:11:31;;;;;;;6.63;3.65;;;;;;;;;;4997925;28;20228;-51
2022/07/20 14:13:57;;;;;;;7.10;3.95;;;;;;;;;;5003704;28;20240;-52
2022/07/20 14:16:24;;;;;;;7.55;3.95;;;;;;;;;;4997182;28;20240;-52
2022/07/20 14:18:51;;;;;;;8.48;4.18;;;;;;;;;;4999209;28;20688;-53
2022/07/20 14:21:18;;;;;;;7.75;3.67;;;;;;;;;;4996134;28;20736;-51
2022/07/20 14:23:44;;;;;;;6.55;4.43;;;;;;;;;;4998162;28;20235;-52
2022/07/20 14:26:12;;;;;;;4.90;4.40;;;;;;;;;;4996483;28;20726;-51
2022/07/20 14:28:38;;;;;;;6.10;3.65;;;;;;;;;;4992016;28;20233;-51
2022/07/20 14:31:05;;;;;;;4.28;3.85;;;;;;;;;;4999984;28;20252;-52
2022/07/20 14:33:31;;;;;;;6.28;3.35;;;;;;;;;;5004450;28;20725;-51
2022/07/20 14:35:59;;;;;;;4.40;3.97;;;;;;;;;;4995147;28;20237;-53
2022/07/20 14:38:26;;;;;;;7.88;3.35;;;;;;;;;;5002606;28;20232;-51
2022/07/20 14:40:52;;;;;;;3.85;3.53;;;;;;;;;;4997459;28;20241;-51
2022/07/20 14:43:19;;;;;;;6.57;3.97;;;;;;;;;;4999451;28;20971;-51
2022/07/20 14:45:45;;;;;;;9.20;3.45;;;;;;;;;;5002842;28;20235;-51
2022/07/20 14:48:11;;;;;;;6.63;4.55;;;;;;;;;;4996396;28;20598;-52